Search for airport 
image banner adimage banner ad
image banner ad

SSNG - Montenegro Airport

Located in Montenegro, Brazil

ICAO - SSNG, IATA - QGF

Data provided by Airmate  

General information

Coordinates: S29°43'11" W51°29'20"
Elevation is 78 feet MSL.
Magnetic variation is -17° East
Rated:
View ratings: [VIEW]


View others Airports in Rio Grande do Sul

Operational data

Open for public use
Current time UTC:
Current local time:
Weather at : SBCO - Canoas Airport ( 42 km )
METAR: SBCO 032000Z 21003KT 180V240 CAVOK 27/16 Q1023
TAF: TAF SBCO 031500Z 0318/0406 14007KT CAVOK TX27/0319Z TN12/0406Z PROB40 0402/0406 3000 BR RMK PEU
View NOTAMs / SUP AIP / TFR affecting this airport [VIEW]
Communications frequencies: [VIEW]

Runways:

RWY identifierQFULength (ft)Width (ft)SurfaceLDA (ft)
13301875GRS
31301875GRS

Airport contact information

Address: Montenegro Brazil

Other aviation service providers

Aviation club (not for profit)

Aeroclube De Montenegro

Aeroclube De Montenegro

Satellite view of SSNG